createdAt,value
2018-09-20T00:02:13.364Z,19.48
2018-09-20T00:04:41.625Z,17.35
2018-09-20T00:07:09.971Z,21.50
2018-09-20T00:09:38.241Z,18.62
2018-09-20T00:12:06.574Z,21.03
2018-09-20T00:14:34.892Z,16.03
2018-09-20T00:17:03.173Z,18.70
2018-09-20T00:19:31.484Z,18.20
2018-09-20T00:21:59.791Z,23.87
2018-09-20T00:24:28.227Z,22.13
2018-09-20T00:26:56.553Z,17.60
2018-09-20T00:29:25.215Z,15.48
2018-09-20T00:31:53.556Z,17.95
2018-09-20T00:34:21.835Z,18.35
2018-09-20T00:36:50.314Z,16.00
2018-09-20T00:39:18.641Z,15.25
2018-09-20T00:41:46.940Z,20.15
2018-09-20T00:44:15.274Z,16.10
2018-09-20T00:46:43.589Z,16.17
2018-09-20T00:49:11.939Z,17.10
2018-09-20T00:51:40.295Z,15.08
2018-09-20T00:54:08.628Z,19.40
2018-09-20T00:56:36.953Z,16.50
2018-09-20T00:59:05.473Z,14.68
2018-09-20T01:01:33.817Z,19.50
2018-09-20T01:04:02.159Z,18.30
2018-09-20T01:06:30.482Z,16.00
2018-09-20T01:08:58.764Z,18.85
2018-09-20T01:11:27.218Z,15.67
2018-09-20T01:13:55.504Z,18.73
2018-09-20T01:16:23.855Z,18.43
2018-09-20T01:18:52.342Z,16.70
2018-09-20T01:21:20.673Z,17.12
2018-09-20T01:23:49.005Z,20.50
2018-09-20T01:26:18.105Z,18.05
2018-09-20T01:28:46.496Z,16.00
2018-09-20T01:31:14.786Z,20.20
2018-09-20T01:33:43.083Z,13.80
2018-09-20T01:36:12.351Z,15.58
2018-09-20T01:38:40.652Z,16.82
2018-09-20T01:41:08.981Z,18.52
2018-09-20T01:43:37.284Z,19.00
2018-09-20T01:46:06.013Z,16.23
2018-09-20T01:48:34.281Z,19.37
2018-09-20T01:51:02.579Z,17.50
2018-09-20T01:53:30.957Z,16.93
2018-09-20T01:55:59.276Z,21.87
2018-09-20T01:58:27.619Z,14.70
2018-09-20T02:00:55.866Z,18.10
2018-09-20T02:03:24.265Z,16.30
2018-09-20T02:05:52.561Z,14.95
2018-09-20T02:08:21.005Z,18.45
2018-09-20T02:10:49.310Z,20.95
2018-09-20T02:13:17.927Z,20.17
2018-09-20T02:15:46.239Z,14.80
2018-09-20T02:18:14.534Z,19.90
2018-09-20T02:20:42.910Z,20.40
2018-09-20T02:23:11.231Z,17.20
2018-09-20T02:25:39.612Z,26.87
2018-09-20T02:28:08.030Z,17.23
2018-09-20T02:31:16.306Z,16.30
2018-09-20T02:33:44.626Z,17.50
2018-09-20T02:36:12.928Z,18.82
2018-09-20T02:38:41.529Z,19.42
2018-09-20T02:41:10.424Z,17.25
2018-09-20T02:43:38.792Z,18.62
2018-09-20T02:46:07.124Z,19.80
2018-09-20T02:48:35.508Z,15.43
2018-09-20T02:51:03.893Z,22.70
2018-09-20T02:53:32.357Z,14.25
2018-09-20T02:56:00.663Z,17.13
2018-09-20T02:58:29.007Z,18.57
2018-09-20T03:00:57.279Z,14.27
2018-09-20T03:03:25.835Z,15.83
2018-09-20T03:05:54.147Z,19.52
2018-09-20T03:08:22.482Z,15.75
2018-09-20T03:10:50.786Z,19.60
2018-09-20T03:13:19.078Z,22.98
2018-09-20T03:15:47.345Z,23.55
2018-09-20T03:18:15.684Z,23.00
2018-09-20T03:20:44.024Z,17.60
2018-09-20T03:23:12.419Z,16.65
2018-09-20T03:25:40.720Z,17.27
2018-09-20T03:28:09.075Z,23.35
2018-09-20T03:30:37.451Z,19.30
2018-09-20T03:33:06.017Z,20.70
2018-09-20T03:35:34.380Z,16.10
2018-09-20T03:38:02.686Z,25.87
2018-09-20T03:40:31.035Z,18.07
2018-09-20T03:42:59.327Z,18.93
2018-09-20T03:45:27.631Z,24.27
2018-09-20T03:47:55.945Z,17.57
2018-09-20T03:50:24.273Z,20.33
2018-09-20T03:52:52.595Z,24.60
2018-09-20T03:55:20.934Z,21.23
2018-09-20T03:57:49.262Z,18.87
2018-09-20T04:00:17.555Z,17.25
2018-09-20T04:02:45.895Z,20.75
2018-09-20T04:05:14.222Z,20.23
2018-09-20T04:07:42.593Z,19.77
2018-09-20T04:10:10.951Z,21.15
2018-09-20T04:12:39.521Z,20.57
2018-09-20T04:15:08.049Z,14.83
2018-09-20T04:17:36.357Z,19.37
2018-09-20T04:20:05.240Z,24.07
2018-09-20T04:22:33.584Z,18.85
2018-09-20T04:25:01.956Z,17.20
2018-09-20T04:27:30.215Z,20.97
2018-09-20T04:29:58.591Z,19.73
2018-09-20T04:32:26.905Z,23.10
2018-09-20T04:34:55.182Z,16.97
2018-09-20T04:37:23.537Z,14.20
2018-09-20T04:39:51.843Z,17.95
2018-09-20T04:42:20.208Z,20.40
2018-09-20T04:44:48.570Z,17.50
2018-09-20T04:47:16.852Z,25.62
2018-09-20T04:49:45.265Z,23.20
2018-09-20T04:52:13.552Z,19.45
2018-09-20T04:54:41.882Z,12.33
2018-09-20T04:57:10.275Z,15.13
2018-09-20T04:59:39.221Z,26.80
2018-09-20T05:02:07.579Z,23.45
2018-09-20T05:04:35.959Z,16.90
2018-09-20T05:07:04.264Z,18.32
2018-09-20T05:09:32.696Z,16.52
2018-09-20T05:12:00.949Z,17.05
2018-09-20T05:14:29.253Z,22.30
2018-09-20T05:16:57.515Z,24.70
2018-09-20T05:19:25.883Z,24.50
2018-09-20T05:21:54.185Z,22.53
2018-09-20T05:24:22.453Z,18.50
2018-09-20T05:26:57.524Z,27.93
2018-09-20T05:29:25.925Z,29.42
2018-09-20T05:31:54.243Z,22.90
2018-09-20T05:34:22.504Z,20.08
2018-09-20T05:36:50.840Z,20.90
2018-09-20T05:39:19.143Z,24.37
2018-09-20T05:41:48.121Z,36.57
2018-09-20T05:44:16.458Z,24.72
2018-09-20T05:46:44.831Z,15.90
2018-09-20T05:49:13.156Z,24.10
2018-09-20T05:51:41.526Z,21.80
2018-09-20T05:54:09.821Z,22.77
2018-09-20T05:56:38.376Z,21.83
2018-09-20T05:59:06.699Z,23.95
2018-09-20T06:01:35.117Z,18.15
2018-09-20T06:04:03.449Z,24.80
2018-09-20T06:06:31.754Z,24.90
2018-09-20T06:09:00.138Z,19.10
2018-09-20T06:11:28.398Z,21.52
2018-09-20T06:13:56.733Z,24.02
2018-09-20T06:16:25.019Z,26.82
2018-09-20T06:18:53.349Z,26.80
2018-09-20T06:21:21.644Z,27.02
2018-09-20T06:23:49.984Z,28.12
2018-09-20T06:26:18.298Z,26.85
2018-09-20T06:28:46.718Z,26.65
2018-09-20T06:31:15.273Z,26.25
2018-09-20T06:33:43.573Z,28.80
2018-09-20T06:36:11.873Z,21.20
2018-09-20T06:38:40.288Z,24.30
2018-09-20T06:41:08.700Z,26.70
2018-09-20T06:43:37.098Z,23.40
2018-09-20T06:46:05.452Z,19.40
2018-09-20T06:48:33.793Z,23.50
2018-09-20T06:51:02.199Z,24.30
2018-09-20T06:53:30.548Z,24.43
2018-09-20T06:55:58.833Z,24.75
2018-09-20T06:58:27.192Z,18.35
2018-09-20T07:00:55.613Z,26.20
2018-09-20T07:03:23.973Z,21.90
2018-09-20T07:05:52.325Z,20.40
2018-09-20T07:08:20.728Z,26.55
2018-09-20T07:10:49.069Z,16.75
2018-09-20T07:13:17.369Z,17.77
2018-09-20T07:15:45.706Z,20.25
2018-09-20T07:18:14.037Z,18.20
2018-09-20T07:20:42.366Z,18.95
2018-09-20T07:23:10.663Z,14.80
2018-09-20T07:25:38.977Z,16.80
2018-09-20T07:28:07.327Z,19.37
2018-09-20T07:30:35.637Z,19.90
2018-09-20T07:33:03.946Z,20.05
2018-09-20T07:35:32.262Z,15.95
2018-09-20T07:38:00.585Z,18.17
2018-09-20T07:40:28.917Z,16.65
2018-09-20T07:42:57.238Z,24.57
2018-09-20T07:45:25.552Z,23.52
2018-09-20T07:47:53.911Z,21.95
2018-09-20T07:50:22.305Z,21.40
2018-09-20T07:52:50.664Z,24.50
2018-09-20T07:55:19.000Z,19.27
2018-09-20T07:57:47.329Z,15.60
2018-09-20T08:00:15.661Z,18.40
2018-09-20T08:02:43.920Z,19.20
2018-09-20T08:05:12.370Z,18.27
2018-09-20T08:07:40.764Z,20.70
2018-09-20T08:10:09.132Z,15.13
2018-09-20T08:12:37.438Z,14.97
2018-09-20T08:15:06.476Z,17.43
2018-09-20T08:17:34.775Z,16.77
2018-09-20T08:20:03.212Z,16.23
2018-09-20T08:22:31.555Z,15.15
2018-09-20T08:24:59.881Z,20.72
2018-09-20T08:27:28.166Z,17.23
2018-09-20T08:29:56.473Z,18.98
2018-09-20T08:32:24.772Z,13.50
2018-09-20T08:34:53.074Z,12.73
2018-09-20T08:37:21.398Z,13.33
2018-09-20T08:39:49.654Z,16.27
2018-09-20T08:42:18.047Z,12.07
2018-09-20T08:44:46.353Z,13.28
2018-09-20T08:47:14.674Z,25.57
2018-09-20T08:49:43.072Z,14.98
2018-09-20T08:52:11.400Z,16.97
2018-09-20T08:54:39.725Z,10.90
2018-09-20T08:57:08.100Z,19.87
2018-09-20T08:59:36.355Z,15.38
2018-09-20T09:02:04.709Z,10.38
2018-09-20T09:04:33.049Z,18.52
2018-09-20T09:07:01.436Z,17.40
2018-09-20T09:09:29.780Z,13.32
2018-09-20T09:11:58.151Z,18.55
2018-09-20T09:14:26.485Z,15.03
2018-09-20T09:16:54.777Z,15.00
2018-09-20T09:19:23.062Z,16.60
2018-09-20T09:21:51.338Z,10.85
2018-09-20T09:24:19.660Z,18.42
2018-09-20T09:26:47.950Z,13.98
2018-09-20T09:29:16.228Z,12.15
2018-09-20T09:31:44.507Z,11.53
2018-09-20T09:34:12.926Z,15.88
2018-09-20T09:36:41.381Z,14.93
2018-09-20T09:39:11.341Z,11.93
2018-09-20T09:41:39.654Z,12.03
2018-09-20T09:44:07.982Z,14.73
2018-09-20T09:46:36.327Z,13.20
2018-09-20T09:49:04.656Z,14.93
2018-09-20T09:51:32.963Z,12.33
2018-09-20T09:54:01.308Z,11.63
2018-09-20T09:56:30.401Z,14.63
2018-09-20T09:58:58.715Z,12.85
2018-09-20T10:01:27.080Z,13.60
2018-09-20T10:03:55.373Z,9.53
2018-09-20T10:06:23.711Z,11.78
2018-09-20T10:08:52.011Z,11.68
2018-09-20T10:11:20.345Z,7.70
2018-09-20T10:13:48.829Z,10.88
2018-09-20T10:16:17.065Z,10.00
2018-09-20T10:18:45.346Z,15.20
2018-09-20T10:21:13.678Z,13.48
2018-09-20T10:23:41.972Z,13.00
2018-09-20T10:26:10.307Z,15.88
2018-09-20T10:28:38.649Z,11.25
2018-09-20T10:31:06.968Z,14.65
2018-09-20T10:33:35.280Z,11.38
2018-09-20T10:36:03.716Z,12.55
2018-09-20T10:38:32.019Z,15.90
2018-09-20T10:41:00.890Z,13.07
2018-09-20T10:43:29.199Z,15.38
2018-09-20T10:45:57.617Z,15.72
2018-09-20T10:48:25.941Z,12.80
2018-09-20T10:50:54.255Z,13.20
2018-09-20T10:53:22.571Z,10.63
2018-09-20T10:55:50.920Z,14.03
2018-09-20T10:58:19.233Z,11.68
2018-09-20T11:00:47.592Z,10.80
2018-09-20T11:03:15.939Z,19.12
2018-09-20T11:05:44.317Z,10.80
2018-09-20T11:08:12.695Z,9.70
2018-09-20T11:10:41.022Z,13.08
2018-09-20T11:13:09.344Z,14.77
2018-09-20T11:15:37.678Z,14.40
2018-09-20T11:18:06.002Z,10.50
2018-09-20T11:20:34.299Z,9.93
2018-09-20T11:23:02.674Z,14.55
2018-09-20T11:25:31.040Z,12.60
2018-09-20T11:27:59.376Z,14.05
2018-09-20T11:30:27.696Z,13.15
2018-09-20T11:32:56.033Z,9.17
2018-09-20T11:35:24.328Z,8.83
2018-09-20T11:37:52.715Z,13.75
2018-09-20T11:40:21.070Z,8.48
2018-09-20T11:42:49.379Z,15.23
2018-09-20T11:45:17.679Z,15.90
2018-09-20T11:47:46.199Z,10.85
2018-09-20T11:50:14.496Z,10.60
2018-09-20T11:52:42.813Z,13.75
2018-09-20T11:55:11.125Z,12.20
2018-09-20T11:57:39.497Z,8.93
2018-09-20T12:00:07.957Z,14.23
2018-09-20T12:02:36.367Z,8.08
2018-09-20T12:05:04.700Z,14.05
2018-09-20T12:07:33.083Z,9.35
2018-09-20T12:10:02.597Z,11.78
2018-09-20T12:12:30.875Z,7.30
2018-09-20T12:14:59.152Z,10.20
2018-09-20T12:17:27.517Z,10.10
2018-09-20T12:19:55.870Z,8.07
2018-09-20T12:22:24.163Z,11.95
2018-09-20T12:24:52.454Z,11.53
2018-09-20T12:27:20.783Z,7.10
2018-09-20T12:29:49.093Z,7.72
2018-09-20T12:32:17.484Z,9.75
2018-09-20T12:34:45.681Z,12.50
2018-09-20T12:37:14.013Z,8.90
2018-09-20T12:39:42.353Z,14.70
2018-09-20T12:42:10.707Z,13.85
2018-09-20T12:44:39.105Z,12.60
2018-09-20T12:47:07.434Z,12.58
2018-09-20T12:49:35.754Z,8.98
2018-09-20T12:52:04.105Z,11.65
2018-09-20T12:54:32.502Z,9.95
2018-09-20T12:57:00.849Z,11.43
2018-09-20T12:59:29.181Z,10.47
2018-09-20T13:01:57.493Z,10.05
2018-09-20T13:04:26.053Z,13.68
2018-09-20T13:06:54.411Z,15.13
2018-09-20T13:09:22.762Z,11.18
2018-09-20T13:11:51.093Z,15.13
2018-09-20T13:14:19.535Z,14.20
2018-09-20T13:16:47.874Z,17.10
2018-09-20T13:19:16.295Z,16.65
2018-09-20T13:21:44.650Z,14.78
2018-09-20T13:24:12.987Z,22.40
2018-09-20T13:26:41.353Z,19.23
2018-09-20T13:29:09.672Z,12.67
2018-09-20T13:31:38.023Z,11.53
2018-09-20T13:34:06.389Z,18.27
2018-09-20T13:36:34.847Z,16.05
2018-09-20T13:39:03.537Z,14.63
2018-09-20T13:41:31.908Z,13.23
2018-09-20T13:44:00.287Z,14.05
2018-09-20T13:46:28.652Z,12.95
2018-09-20T13:48:56.989Z,18.32
2018-09-20T13:51:25.319Z,10.20
2018-09-20T13:53:54.014Z,9.33
2018-09-20T13:56:22.427Z,13.68
2018-09-20T13:58:50.860Z,12.20
2018-09-20T14:01:19.251Z,14.28
2018-09-20T14:03:47.976Z,8.43
2018-09-20T14:06:16.372Z,13.38
2018-09-20T14:08:44.741Z,9.05
2018-09-20T14:11:13.085Z,9.43
2018-09-20T14:13:41.446Z,14.47
2018-09-20T14:16:09.850Z,14.58
2018-09-20T14:18:38.221Z,16.07
2018-09-20T14:21:07.041Z,16.75
2018-09-20T14:23:35.430Z,15.13
2018-09-20T14:26:03.761Z,19.20
2018-09-20T14:28:32.087Z,11.12
2018-09-20T14:31:00.456Z,8.03
2018-09-20T14:33:28.927Z,12.45
2018-09-20T14:35:57.271Z,18.65
2018-09-20T14:38:25.593Z,19.65
2018-09-20T14:40:53.955Z,14.65
2018-09-20T14:43:22.405Z,16.20
2018-09-20T14:45:50.757Z,14.95
2018-09-20T14:48:19.160Z,16.15
2018-09-20T14:50:47.545Z,13.48
2018-09-20T14:53:16.035Z,13.68
2018-09-20T14:55:44.359Z,16.70
2018-09-20T14:58:12.760Z,21.63
2018-09-20T15:00:41.226Z,19.50
2018-09-20T15:03:09.568Z,11.55
2018-09-20T15:05:37.979Z,14.00
2018-09-20T15:08:06.378Z,12.25
2018-09-20T15:10:34.758Z,11.60
2018-09-20T15:13:03.118Z,12.07
2018-09-20T15:15:31.466Z,14.87
2018-09-20T15:17:59.784Z,17.60
2018-09-20T15:20:28.272Z,16.73
2018-09-20T15:22:56.639Z,14.05
2018-09-20T15:25:24.989Z,15.90
2018-09-20T15:27:53.344Z,15.13
2018-09-20T15:30:21.710Z,13.43
2018-09-20T15:32:50.028Z,11.45
2018-09-20T15:35:18.477Z,9.55
2018-09-20T15:37:46.864Z,16.82
2018-09-20T15:40:15.415Z,10.38
2018-09-20T15:42:43.762Z,9.60
2018-09-20T15:45:12.118Z,14.33
2018-09-20T15:47:40.486Z,8.30
2018-09-20T15:50:08.838Z,10.13
2018-09-20T15:52:37.203Z,14.00
2018-09-20T15:55:05.647Z,11.27
2018-09-20T15:57:33.971Z,16.87
2018-09-20T16:00:02.366Z,10.20
2018-09-20T16:02:30.740Z,7.65
2018-09-20T16:04:59.166Z,11.40
2018-09-20T16:07:27.551Z,8.33
2018-09-20T16:09:55.917Z,11.15
2018-09-20T16:12:24.306Z,11.90
2018-09-20T16:14:52.708Z,8.05
2018-09-20T16:17:21.187Z,7.92
2018-09-20T16:19:49.562Z,9.68
2018-09-20T16:22:17.918Z,8.40
2018-09-20T16:24:46.319Z,7.78
2018-09-20T16:27:14.692Z,7.33
2018-09-20T16:29:58.829Z,11.70
2018-09-20T16:32:56.258Z,10.95
2018-09-20T16:35:32.281Z,8.98
2018-09-20T16:38:16.778Z,10.00
2018-09-20T16:40:47.319Z,8.43
2018-09-20T16:43:15.657Z,12.00
2018-09-20T16:45:43.999Z,11.40
2018-09-20T16:48:12.406Z,6.40
2018-09-20T16:50:40.733Z,12.67
2018-09-20T16:53:09.128Z,12.73
2018-09-20T16:55:37.481Z,11.90
2018-09-20T16:58:05.827Z,13.40
2018-09-20T17:00:34.170Z,11.25
2018-09-20T17:03:02.551Z,9.98
2018-09-20T17:05:32.052Z,12.43
2018-09-20T17:08:00.614Z,8.03
2018-09-20T17:10:29.004Z,19.25
2018-09-20T17:12:57.398Z,12.60
2018-09-20T17:15:25.773Z,9.60
2018-09-20T17:17:54.167Z,13.83
2018-09-20T17:20:22.756Z,11.30
2018-09-20T17:22:51.122Z,13.38
2018-09-20T17:25:19.562Z,13.32
2018-09-20T17:27:47.922Z,15.05
2018-09-20T17:30:16.363Z,19.87
2018-09-20T17:32:44.705Z,16.00
2018-09-20T17:35:13.893Z,19.57
2018-09-20T17:37:44.015Z,12.25
2018-09-20T17:40:14.051Z,16.52
2018-09-20T17:42:43.913Z,17.73
2018-09-20T17:45:12.299Z,19.07
2018-09-20T17:47:40.646Z,14.85
2018-09-20T17:50:08.989Z,14.98
2018-09-20T17:52:38.237Z,17.27
2018-09-20T17:55:07.524Z,18.37
2018-09-20T17:57:37.114Z,15.25
2018-09-20T18:00:05.494Z,14.73
2018-09-20T18:02:33.901Z,12.50
2018-09-20T18:05:02.259Z,18.55
2018-09-20T18:07:30.555Z,12.45
2018-09-20T18:09:58.857Z,13.70
2018-09-20T18:12:27.182Z,15.58
2018-09-20T18:14:55.535Z,14.65
2018-09-20T18:17:23.885Z,17.10
2018-09-20T18:19:52.289Z,22.13
2018-09-20T18:22:20.683Z,13.13
2018-09-20T18:24:48.999Z,15.27
2018-09-20T18:27:17.343Z,12.90
2018-09-20T18:29:45.729Z,19.93
2018-09-20T18:32:14.079Z,19.90
2018-09-20T18:34:42.432Z,17.17
2018-09-20T18:37:10.977Z,19.60
2018-09-20T18:39:39.373Z,14.87
2018-09-20T18:42:07.701Z,16.82
2018-09-20T18:44:36.053Z,15.95
2018-09-20T18:47:04.476Z,17.85
2018-09-20T18:49:32.843Z,15.75
2018-09-20T18:52:01.202Z,21.70
2018-09-20T18:54:29.558Z,20.43
2018-09-20T18:56:58.009Z,23.98
2018-09-20T18:59:26.365Z,20.27
2018-09-20T19:01:55.605Z,20.05
2018-09-20T19:04:23.951Z,21.12
2018-09-20T19:06:52.326Z,14.73
2018-09-20T19:09:20.766Z,14.35
2018-09-20T19:11:49.142Z,18.73
2018-09-20T19:14:17.519Z,15.00
2018-09-20T19:16:45.899Z,15.43
2018-09-20T19:19:14.304Z,13.85
2018-09-20T19:21:42.709Z,17.55
2018-09-20T19:24:11.068Z,19.23
2018-09-20T19:26:39.445Z,13.78
2018-09-20T19:29:07.794Z,15.53
2018-09-20T19:31:36.181Z,19.80
2018-09-20T19:34:04.564Z,22.05
2018-09-20T19:36:32.985Z,18.37
2018-09-20T19:39:01.386Z,18.82
2018-09-20T19:41:29.759Z,19.50
2018-09-20T19:43:58.093Z,18.42
2018-09-20T19:46:26.485Z,16.85
2018-09-20T19:48:54.900Z,13.35
2018-09-20T19:51:23.275Z,15.53
2018-09-20T19:53:51.630Z,16.10
2018-09-20T19:56:20.045Z,13.00
2018-09-20T19:58:48.413Z,14.13
2018-09-20T20:01:16.761Z,13.83
2018-09-20T20:03:45.158Z,11.88
2018-09-20T20:06:13.502Z,15.38
2018-09-20T20:08:41.895Z,14.33
2018-09-20T20:11:10.233Z,16.17
2018-09-20T20:13:38.611Z,13.20
2018-09-20T20:16:07.034Z,11.97
2018-09-20T20:18:35.377Z,13.93
2018-09-20T20:21:03.705Z,15.87
2018-09-20T20:23:32.033Z,14.93
2018-09-20T20:26:00.708Z,13.10
2018-09-20T20:28:29.062Z,12.85
2018-09-20T20:30:57.384Z,12.23
2018-09-20T20:33:25.769Z,13.13
2018-09-20T20:35:54.286Z,17.45
2018-09-20T20:38:22.656Z,13.93
2018-09-20T20:40:50.987Z,12.18
2018-09-20T20:43:19.411Z,13.65
2018-09-20T20:45:47.738Z,12.23
2018-09-20T20:48:16.058Z,15.30
2018-09-20T20:50:44.377Z,13.38
2018-09-20T20:53:12.735Z,10.78
2018-09-20T20:55:41.105Z,15.80
2018-09-20T20:58:09.636Z,9.73
2018-09-20T21:00:37.968Z,9.63
2018-09-20T21:03:06.449Z,12.00
2018-09-20T21:05:34.842Z,11.73
2018-09-20T21:08:03.193Z,12.45
2018-09-20T21:10:31.537Z,12.37
2018-09-20T21:12:59.908Z,11.43
2018-09-20T21:15:28.255Z,11.00
2018-09-20T21:17:56.646Z,14.58
2018-09-20T21:20:24.985Z,9.40
2018-09-20T21:22:53.323Z,13.28
2018-09-20T21:25:21.691Z,9.25
2018-09-20T21:27:50.152Z,8.08
2018-09-20T21:30:18.436Z,9.03
2018-09-20T21:32:46.798Z,10.30
2018-09-20T21:35:15.193Z,13.00
2018-09-20T21:37:43.521Z,10.72
2018-09-20T21:40:11.901Z,12.30
2018-09-20T21:42:40.263Z,12.75
2018-09-20T21:45:08.792Z,14.90
2018-09-20T21:47:37.129Z,14.00
2018-09-20T21:50:05.474Z,13.35
2018-09-20T21:52:33.795Z,16.80
2018-09-20T21:55:02.148Z,10.05
2018-09-20T21:57:30.469Z,10.68
2018-09-20T21:59:58.971Z,11.00
2018-09-20T22:02:32.638Z,10.83
2018-09-20T22:05:00.988Z,13.03
2018-09-20T22:07:29.379Z,11.93
2018-09-20T22:09:57.728Z,12.15
2018-09-20T22:12:26.102Z,9.55
2018-09-20T22:14:54.479Z,11.22
2018-09-20T22:17:22.873Z,10.98
2018-09-20T22:19:51.183Z,9.10
2018-09-20T22:22:19.575Z,10.35
2018-09-20T22:24:47.890Z,12.78
2018-09-20T22:27:16.251Z,8.80
2018-09-20T22:29:44.628Z,11.45
2018-09-20T22:32:12.995Z,10.88
2018-09-20T22:34:41.441Z,9.55
2018-09-20T22:37:09.759Z,8.38
2018-09-20T22:39:38.176Z,12.05
2018-09-20T22:42:06.494Z,6.60
2018-09-20T22:44:34.828Z,9.78
2018-09-20T22:47:03.181Z,9.43
2018-09-20T22:52:13.865Z,9.95
2018-09-20T22:54:42.338Z,11.88
2018-09-20T22:57:10.702Z,14.90
2018-09-20T22:59:39.037Z,7.70
2018-09-20T23:02:10.550Z,8.90
2018-09-20T23:04:38.938Z,9.78
2018-09-20T23:07:07.622Z,15.10
2018-09-20T23:09:36.272Z,9.35
2018-09-20T23:12:04.701Z,11.20
2018-09-20T23:14:33.396Z,8.93
2018-09-20T23:17:01.793Z,13.10
2018-09-20T23:19:30.152Z,13.95
2018-09-20T23:21:58.496Z,7.95
2018-09-20T23:24:26.852Z,10.70
2018-09-20T23:26:55.226Z,11.05
2018-09-20T23:29:23.614Z,9.88
2018-09-20T23:31:52.052Z,8.93
2018-09-20T23:34:20.388Z,8.80
2018-09-20T23:36:48.738Z,12.30
2018-09-20T23:39:17.209Z,12.95
2018-09-20T23:41:45.583Z,9.10
2018-09-20T23:44:13.945Z,12.95
2018-09-20T23:46:42.321Z,13.20
2018-09-20T23:49:10.710Z,10.50
2018-09-20T23:51:39.080Z,12.07
2018-09-20T23:54:07.400Z,8.68
2018-09-20T23:56:35.779Z,8.90
2018-09-20T23:59:04.185Z,9.58
